X  CloseMetar Aviation Weather Data     KSDL Scottsdale Airport

Temperature

64°F Temperature

45°F Dewpoint

49% Humidity



Wind

 7 MPH

11 KM/H

 3 M/S

 6 KTS



240°
West South
West
Current Conditions

Clear Clear
Pressure 1007.12 (hPa) - 29.74 (in)
Visibility 9.9 (mi) - 16 (km)
Airport
Airport-code KSDL

Location Scottsdale Airport 15 (mi)

Metar:
KSDL 260953Z AUTO 24006KT 10SM CLR 18/07 A2974 RMK AO2 SLP050 T01830067

Time: 10-26-2020 02:53